sensor_id;sensor_type;location;lat;lon;timestamp;temperature;humidity
30288;DHT22;17103;48.316;11.558;2022-09-12T00:00:42;21.00;50.60
30288;DHT22;17103;48.316;11.558;2022-09-12T00:03:08;21.00;50.50
30288;DHT22;17103;48.316;11.558;2022-09-12T00:05:42;21.00;50.20
30288;DHT22;17103;48.316;11.558;2022-09-12T00:08:08;20.90;50.30
30288;DHT22;17103;48.316;11.558;2022-09-12T00:10:42;20.90;50.30
30288;DHT22;17103;48.316;11.558;2022-09-12T00:13:09;20.90;50.20
30288;DHT22;17103;48.316;11.558;2022-09-12T00:15:42;20.90;50.10
30288;DHT22;17103;48.316;11.558;2022-09-12T00:18:11;20.80;50.00
30288;DHT22;17103;48.316;11.558;2022-09-12T00:20:46;20.80;49.90
30288;DHT22;17103;48.316;11.558;2022-09-12T00:23:12;20.70;49.90
30288;DHT22;17103;48.316;11.558;2022-09-12T00:25:43;20.70;50.00
30288;DHT22;17103;48.316;11.558;2022-09-12T00:28:10;20.60;50.20
30288;DHT22;17103;48.316;11.558;2022-09-12T00:30:42;20.60;50.30
30288;DHT22;17103;48.316;11.558;2022-09-12T00:33:09;20.60;50.40
30288;DHT22;17103;48.316;11.558;2022-09-12T00:35:47;20.60;50.50
30288;DHT22;17103;48.316;11.558;2022-09-12T00:38:13;20.50;50.20
30288;DHT22;17103;48.316;11.558;2022-09-12T00:40:40;20.60;50.30
30288;DHT22;17103;48.316;11.558;2022-09-12T00:43:14;20.50;50.20
30288;DHT22;17103;48.316;11.558;2022-09-12T00:45:40;20.50;50.10
30288;DHT22;17103;48.316;11.558;2022-09-12T00:48:15;20.50;50.20
30288;DHT22;17103;48.316;11.558;2022-09-12T00:50:43;20.50;50.10
30288;DHT22;17103;48.316;11.558;2022-09-12T00:53:08;20.50;50.20
30288;DHT22;17103;48.316;11.558;2022-09-12T00:55:40;20.50;50.20
30288;DHT22;17103;48.316;11.558;2022-09-12T00:58:16;20.40;50.10
30288;DHT22;17103;48.316;11.558;2022-09-12T01:00:43;20.20;50.00
30288;DHT22;17103;48.316;11.558;2022-09-12T01:03:11;20.40;50.10
30288;DHT22;17103;48.316;11.558;2022-09-12T01:05:43;20.40;50.10
30288;DHT22;17103;48.316;11.558;2022-09-12T01:08:11;20.40;50.00
30288;DHT22;17103;48.316;11.558;2022-09-12T01:10:38;20.40;49.90
30288;DHT22;17103;48.316;11.558;2022-09-12T01:13:07;20.30;49.70
30288;DHT22;17103;48.316;11.558;2022-09-12T01:15:35;20.30;49.70
30288;DHT22;17103;48.316;11.558;2022-09-12T01:18:23;20.20;50.30
30288;DHT22;17103;48.316;11.558;2022-09-12T01:20:54;20.20;49.80
30288;DHT22;17103;48.316;11.558;2022-09-12T01:26:40;20.20;49.80
30288;DHT22;17103;48.316;11.558;2022-09-12T01:29:30;20.10;49.70
30288;DHT22;17103;48.316;11.558;2022-09-12T01:32:28;20.10;49.70
30288;DHT22;17103;48.316;11.558;2022-09-12T01:37:51;20.10;49.90
30288;DHT22;17103;48.316;11.558;2022-09-12T01:40:24;20.10;49.90
30288;DHT22;17103;48.316;11.558;2022-09-12T01:45:29;20.10;50.00
30288;DHT22;17103;48.316;11.558;2022-09-12T01:48:03;20.10;49.90
30288;DHT22;17103;48.316;11.558;2022-09-12T01:50:33;20.10;49.80
30288;DHT22;17103;48.316;11.558;2022-09-12T01:53:11;20.20;50.00
30288;DHT22;17103;48.316;11.558;2022-09-12T01:55:49;20.20;49.80
30288;DHT22;17103;48.316;11.558;2022-09-12T01:58:35;20.10;49.70
30288;DHT22;17103;48.316;11.558;2022-09-12T02:01:13;20.20;49.60
30288;DHT22;17103;48.316;11.558;2022-09-12T02:03:51;20.20;49.60
30288;DHT22;17103;48.316;11.558;2022-09-12T02:06:25;20.20;49.60
30288;DHT22;17103;48.316;11.558;2022-09-12T02:08:54;20.20;49.60
30288;DHT22;17103;48.316;11.558;2022-09-12T02:11:21;20.20;49.60
30288;DHT22;17103;48.316;11.558;2022-09-12T02:14:00;20.20;49.60
30288;DHT22;17103;48.316;11.558;2022-09-12T02:16:45;20.20;49.40
30288;DHT22;17103;48.316;11.558;2022-09-12T02:19:16;20.20;49.50
30288;DHT22;17103;48.316;11.558;2022-09-12T02:21:54;20.20;49.30
30288;DHT22;17103;48.316;11.558;2022-09-12T02:24:21;20.20;49.20
30288;DHT22;17103;48.316;11.558;2022-09-12T02:26:54;20.20;49.20
30288;DHT22;17103;48.316;11.558;2022-09-12T02:29:22;20.20;49.10
30288;DHT22;17103;48.316;11.558;2022-09-12T02:31:53;20.20;49.10
30288;DHT22;17103;48.316;11.558;2022-09-12T02:39:51;20.10;48.70
30288;DHT22;17103;48.316;11.558;2022-09-12T02:42:20;20.10;48.80
30288;DHT22;17103;48.316;11.558;2022-09-12T02:44:46;20.10;48.60
30288;DHT22;17103;48.316;11.558;2022-09-12T02:47:24;20.10;48.60
30288;DHT22;17103;48.316;11.558;2022-09-12T02:49:52;20.10;48.30
30288;DHT22;17103;48.316;11.558;2022-09-12T02:52:18;20.10;49.00
30288;DHT22;17103;48.316;11.558;2022-09-12T02:54:44;20.10;48.40
30288;DHT22;17103;48.316;11.558;2022-09-12T02:57:20;20.10;48.50
30288;DHT22;17103;48.316;11.558;2022-09-12T02:59:47;20.10;48.30
30288;DHT22;17103;48.316;11.558;2022-09-12T03:16:14;20.00;48.20
30288;DHT22;17103;48.316;11.558;2022-09-12T03:26:34;20.00;48.20
30288;DHT22;17103;48.316;11.558;2022-09-12T03:29:02;20.00;48.10
30288;DHT22;17103;48.316;11.558;2022-09-12T03:31:29;20.00;48.20
30288;DHT22;17103;48.316;11.558;2022-09-12T03:33:56;20.20;48.30
30288;DHT22;17103;48.316;11.558;2022-09-12T03:36:26;20.00;48.20
30288;DHT22;17103;48.316;11.558;2022-09-12T03:38:52;19.90;48.00
30288;DHT22;17103;48.316;11.558;2022-09-12T03:41:18;20.00;48.20
30288;DHT22;17103;48.316;11.558;2022-09-12T03:43:44;20.00;48.20
30288;DHT22;17103;48.316;11.558;2022-09-12T03:46:10;19.90;48.00
30288;DHT22;17103;48.316;11.558;2022-09-12T03:48:36;19.90;48.00
30288;DHT22;17103;48.316;11.558;2022-09-12T03:51:03;19.90;48.00
30288;DHT22;17103;48.316;11.558;2022-09-12T03:53:30;19.90;47.90
30288;DHT22;17103;48.316;11.558;2022-09-12T03:55:56;19.90;47.80
30288;DHT22;17103;48.316;11.558;2022-09-12T03:58:22;19.90;47.80
30288;DHT22;17103;48.316;11.558;2022-09-12T04:00:48;20.00;47.80
30288;DHT22;17103;48.316;11.558;2022-09-12T04:03:14;19.90;47.80
30288;DHT22;17103;48.316;11.558;2022-09-12T04:05:40;19.80;47.60
30288;DHT22;17103;48.316;11.558;2022-09-12T04:08:05;19.80;47.60
30288;DHT22;17103;48.316;11.558;2022-09-12T04:10:32;19.80;47.60
30288;DHT22;17103;48.316;11.558;2022-09-12T04:12:57;19.80;47.70
30288;DHT22;17103;48.316;11.558;2022-09-12T04:15:24;19.80;48.20
30288;DHT22;17103;48.316;11.558;2022-09-12T04:17:50;19.70;48.20
30288;DHT22;17103;48.316;11.558;2022-09-12T04:20:15;19.80;48.30
30288;DHT22;17103;48.316;11.558;2022-09-12T04:22:41;19.80;48.20
30288;DHT22;17103;48.316;11.558;2022-09-12T04:25:07;19.90;48.30
30288;DHT22;17103;48.316;11.558;2022-09-12T04:27:34;19.70;48.00
30288;DHT22;17103;48.316;11.558;2022-09-12T04:29:59;19.70;47.90
30288;DHT22;17103;48.316;11.558;2022-09-12T04:32:28;19.80;47.80
30288;DHT22;17103;48.316;11.558;2022-09-12T04:34:55;19.70;47.60
30288;DHT22;17103;48.316;11.558;2022-09-12T04:37:21;19.70;47.60
30288;DHT22;17103;48.316;11.558;2022-09-12T04:39:48;19.70;47.50
30288;DHT22;17103;48.316;11.558;2022-09-12T04:42:14;19.70;47.40
30288;DHT22;17103;48.316;11.558;2022-09-12T04:44:40;19.70;47.40
30288;DHT22;17103;48.316;11.558;2022-09-12T04:47:05;19.60;47.30
30288;DHT22;17103;48.316;11.558;2022-09-12T04:49:31;19.50;47.20
30288;DHT22;17103;48.316;11.558;2022-09-12T04:51:57;19.60;47.20
30288;DHT22;17103;48.316;11.558;2022-09-12T04:54:23;19.60;47.10
30288;DHT22;17103;48.316;11.558;2022-09-12T04:56:50;19.60;47.00
30288;DHT22;17103;48.316;11.558;2022-09-12T04:59:17;19.60;47.00
30288;DHT22;17103;48.316;11.558;2022-09-12T05:01:44;19.60;46.90
30288;DHT22;17103;48.316;11.558;2022-09-12T05:04:13;19.60;46.90
30288;DHT22;17103;48.316;11.558;2022-09-12T05:06:41;19.60;46.80
30288;DHT22;17103;48.316;11.558;2022-09-12T05:09:09;19.50;46.70
30288;DHT22;17103;48.316;11.558;2022-09-12T05:11:39;19.50;46.60
30288;DHT22;17103;48.316;11.558;2022-09-12T05:14:04;19.50;46.50
30288;DHT22;17103;48.316;11.558;2022-09-12T05:16:30;19.50;46.60
30288;DHT22;17103;48.316;11.558;2022-09-12T05:18:57;19.50;46.50
30288;DHT22;17103;48.316;11.558;2022-09-12T05:21:25;19.50;46.50
30288;DHT22;17103;48.316;11.558;2022-09-12T05:23:55;19.50;46.40
30288;DHT22;17103;48.316;11.558;2022-09-12T05:26:22;19.50;46.50
30288;DHT22;17103;48.316;11.558;2022-09-12T05:28:48;19.50;46.50
30288;DHT22;17103;48.316;11.558;2022-09-12T05:31:19;19.50;46.60
30288;DHT22;17103;48.316;11.558;2022-09-12T05:33:47;19.50;46.50
30288;DHT22;17103;48.316;11.558;2022-09-12T05:36:15;19.50;46.60
30288;DHT22;17103;48.316;11.558;2022-09-12T05:38:42;19.30;46.50
30288;DHT22;17103;48.316;11.558;2022-09-12T05:41:10;19.50;46.70
30288;DHT22;17103;48.316;11.558;2022-09-12T05:43:38;19.50;46.70
30288;DHT22;17103;48.316;11.558;2022-09-12T05:46:06;19.50;46.80
30288;DHT22;17103;48.316;11.558;2022-09-12T05:48:35;19.50;46.80
30288;DHT22;17103;48.316;11.558;2022-09-12T05:51:04;19.50;46.90
30288;DHT22;17103;48.316;11.558;2022-09-12T05:53:31;19.50;47.00
30288;DHT22;17103;48.316;11.558;2022-09-12T05:56:09;19.50;47.00
30288;DHT22;17103;48.316;11.558;2022-09-12T05:58:36;19.50;46.80
30288;DHT22;17103;48.316;11.558;2022-09-12T06:01:09;19.40;46.70
30288;DHT22;17103;48.316;11.558;2022-09-12T06:03:41;19.30;46.60
30288;DHT22;17103;48.316;11.558;2022-09-12T06:06:08;19.20;46.70
30288;DHT22;17103;48.316;11.558;2022-09-12T06:08:34;19.10;46.80
30288;DHT22;17103;48.316;11.558;2022-09-12T06:11:02;19.00;47.00
30288;DHT22;17103;48.316;11.558;2022-09-12T06:13:31;18.90;47.20
30288;DHT22;17103;48.316;11.558;2022-09-12T06:16:08;18.80;47.40
30288;DHT22;17103;48.316;11.558;2022-09-12T06:18:35;18.70;47.10
30288;DHT22;17103;48.316;11.558;2022-09-12T06:21:11;18.70;47.50
30288;DHT22;17103;48.316;11.558;2022-09-12T06:23:38;18.60;47.80
30288;DHT22;17103;48.316;11.558;2022-09-12T06:26:05;18.60;48.00
30288;DHT22;17103;48.316;11.558;2022-09-12T06:28:33;18.50;48.20
30288;DHT22;17103;48.316;11.558;2022-09-12T06:31:11;18.40;48.50
30288;DHT22;17103;48.316;11.558;2022-09-12T06:33:40;18.40;48.90
30288;DHT22;17103;48.316;11.558;2022-09-12T06:36:15;18.40;49.00
30288;DHT22;17103;48.316;11.558;2022-09-12T06:38:41;18.30;49.30
30288;DHT22;17103;48.316;11.558;2022-09-12T06:41:11;18.10;49.30
30288;DHT22;17103;48.316;11.558;2022-09-12T06:43:37;18.20;50.00
30288;DHT22;17103;48.316;11.558;2022-09-12T06:46:04;18.20;50.00
30288;DHT22;17103;48.316;11.558;2022-09-12T06:48:29;18.30;50.20
30288;DHT22;17103;48.316;11.558;2022-09-12T06:53:23;18.20;50.20
30288;DHT22;17103;48.316;11.558;2022-09-12T06:56:00;18.40;50.40
30288;DHT22;17103;48.316;11.558;2022-09-12T06:58:27;18.40;50.70
30288;DHT22;17103;48.316;11.558;2022-09-12T07:01:00;18.40;50.20
30288;DHT22;17103;48.316;11.558;2022-09-12T07:03:28;18.50;50.60
30288;DHT22;17103;48.316;11.558;2022-09-12T07:05:54;18.50;50.50
30288;DHT22;17103;48.316;11.558;2022-09-12T07:08:19;18.50;50.70
30288;DHT22;17103;48.316;11.558;2022-09-12T07:10:45;18.50;50.70
30288;DHT22;17103;48.316;11.558;2022-09-12T07:13:11;18.60;50.90
30288;DHT22;17103;48.316;11.558;2022-09-12T07:15:38;18.70;51.20
30288;DHT22;17103;48.316;11.558;2022-09-12T07:18:04;18.70;51.10
30288;DHT22;17103;48.316;11.558;2022-09-12T07:20:29;18.70;51.20
30288;DHT22;17103;48.316;11.558;2022-09-12T07:22:57;18.70;51.40
30288;DHT22;17103;48.316;11.558;2022-09-12T07:25:23;18.70;51.60
30288;DHT22;17103;48.316;11.558;2022-09-12T07:27:48;18.80;51.40
30288;DHT22;17103;48.316;11.558;2022-09-12T07:30:14;18.90;51.70
30288;DHT22;17103;48.316;11.558;2022-09-12T07:32:40;18.90;51.60
30288;DHT22;17103;48.316;11.558;2022-09-12T07:35:06;19.00;51.60
30288;DHT22;17103;48.316;11.558;2022-09-12T07:37:32;19.10;51.70
30288;DHT22;17103;48.316;11.558;2022-09-12T07:39:57;19.30;51.90
30288;DHT22;17103;48.316;11.558;2022-09-12T07:42:23;19.30;51.90
30288;DHT22;17103;48.316;11.558;2022-09-12T07:44:49;19.40;52.00
30288;DHT22;17103;48.316;11.558;2022-09-12T07:47:16;19.50;52.20
30288;DHT22;17103;48.316;11.558;2022-09-12T07:49:42;19.60;52.00
30288;DHT22;17103;48.316;11.558;2022-09-12T07:52:08;19.70;51.70
30288;DHT22;17103;48.316;11.558;2022-09-12T07:54:34;19.70;51.80
30288;DHT22;17103;48.316;11.558;2022-09-12T07:56:59;19.90;51.90
30288;DHT22;17103;48.316;11.558;2022-09-12T07:59:26;19.90;51.50
30288;DHT22;17103;48.316;11.558;2022-09-12T08:01:52;20.10;51.90
30288;DHT22;17103;48.316;11.558;2022-09-12T08:04:18;20.20;51.30
30288;DHT22;17103;48.316;11.558;2022-09-12T08:06:44;20.30;51.30
30288;DHT22;17103;48.316;11.558;2022-09-12T08:09:09;20.40;51.50
30288;DHT22;17103;48.316;11.558;2022-09-12T08:11:37;20.40;51.50
30288;DHT22;17103;48.316;11.558;2022-09-12T08:14:04;20.50;51.40
30288;DHT22;17103;48.316;11.558;2022-09-12T08:16:31;20.60;51.40
30288;DHT22;17103;48.316;11.558;2022-09-12T08:18:59;20.70;51.30
30288;DHT22;17103;48.316;11.558;2022-09-12T08:21:27;20.80;51.10
30288;DHT22;17103;48.316;11.558;2022-09-12T08:23:55;20.90;51.10
30288;DHT22;17103;48.316;11.558;2022-09-12T08:26:22;21.00;51.10
30288;DHT22;17103;48.316;11.558;2022-09-12T08:28:48;21.00;50.80
30288;DHT22;17103;48.316;11.558;2022-09-12T08:31:15;21.10;50.60
30288;DHT22;17103;48.316;11.558;2022-09-12T08:33:42;21.20;50.70
30288;DHT22;17103;48.316;11.558;2022-09-12T08:36:19;21.30;50.80
30288;DHT22;17103;48.316;11.558;2022-09-12T08:38:47;21.40;50.40
30288;DHT22;17103;48.316;11.558;2022-09-12T08:49:09;21.70;50.40
30288;DHT22;17103;48.316;11.558;2022-09-12T08:51:35;21.80;50.30
30288;DHT22;17103;48.316;11.558;2022-09-12T08:54:02;21.80;50.30
30288;DHT22;17103;48.316;11.558;2022-09-12T08:56:34;21.90;50.40
30288;DHT22;17103;48.316;11.558;2022-09-12T08:59:01;22.00;50.50
30288;DHT22;17103;48.316;11.558;2022-09-12T09:01:36;22.10;50.30
30288;DHT22;17103;48.316;11.558;2022-09-12T09:15:49;22.40;49.60
30288;DHT22;17103;48.316;11.558;2022-09-12T09:18:26;22.50;49.40
30288;DHT22;17103;48.316;11.558;2022-09-12T09:20:59;22.60;48.80
30288;DHT22;17103;48.316;11.558;2022-09-12T09:23:30;22.60;48.50
30288;DHT22;17103;48.316;11.558;2022-09-12T09:28:49;22.70;48.60
30288;DHT22;17103;48.316;11.558;2022-09-12T09:31:19;22.80;49.00
30288;DHT22;17103;48.316;11.558;2022-09-12T09:33:48;22.80;49.10
30288;DHT22;17103;48.316;11.558;2022-09-12T09:36:35;22.90;49.00
30288;DHT22;17103;48.316;11.558;2022-09-12T09:39:16;23.00;49.00
30288;DHT22;17103;48.316;11.558;2022-09-12T09:44:45;23.20;49.00
30288;DHT22;17103;48.316;11.558;2022-09-12T09:47:17;23.20;49.00
30288;DHT22;17103;48.316;11.558;2022-09-12T09:49:44;23.30;49.00
30288;DHT22;17103;48.316;11.558;2022-09-12T09:52:14;23.50;49.00
30288;DHT22;17103;48.316;11.558;2022-09-12T09:54:54;23.50;48.60
30288;DHT22;17103;48.316;11.558;2022-09-12T10:03:04;23.70;47.50
30288;DHT22;17103;48.316;11.558;2022-09-12T10:05:34;23.80;47.90
30288;DHT22;17103;48.316;11.558;2022-09-12T10:08:08;23.90;47.80
30288;DHT22;17103;48.316;11.558;2022-09-12T10:10:34;24.00;48.00
30288;DHT22;17103;48.316;11.558;2022-09-12T10:13:12;24.10;48.00
30288;DHT22;17103;48.316;11.558;2022-09-12T10:15:56;24.10;47.20
30288;DHT22;17103;48.316;11.558;2022-09-12T10:18:37;24.20;47.80
30288;DHT22;17103;48.316;11.558;2022-09-12T10:23:47;24.30;47.10
30288;DHT22;17103;48.316;11.558;2022-09-12T10:26:18;24.40;46.30
30288;DHT22;17103;48.316;11.558;2022-09-12T10:28:49;24.40;47.00
30288;DHT22;17103;48.316;11.558;2022-09-12T10:31:42;24.50;46.60
30288;DHT22;17103;48.316;11.558;2022-09-12T10:34:26;24.50;46.30
30288;DHT22;17103;48.316;11.558;2022-09-12T10:37:02;24.60;46.50
30288;DHT22;17103;48.316;11.558;2022-09-12T10:39:28;24.60;46.30
30288;DHT22;17103;48.316;11.558;2022-09-12T10:42:03;24.70;46.30
30288;DHT22;17103;48.316;11.558;2022-09-12T10:44:32;24.70;46.70
30288;DHT22;17103;48.316;11.558;2022-09-12T10:46:59;24.80;46.90
30288;DHT22;17103;48.316;11.558;2022-09-12T10:49:30;24.90;47.20
30288;DHT22;17103;48.316;11.558;2022-09-12T10:52:11;24.90;46.60
30288;DHT22;17103;48.316;11.558;2022-09-12T10:54:39;25.00;46.50
30288;DHT22;17103;48.316;11.558;2022-09-12T11:02:50;25.20;45.10
30288;DHT22;17103;48.316;11.558;2022-09-12T11:05:46;25.20;45.50
30288;DHT22;17103;48.316;11.558;2022-09-12T11:21:55;25.50;46.00
30288;DHT22;17103;48.316;11.558;2022-09-12T11:25:27;25.60;45.80
30288;DHT22;17103;48.316;11.558;2022-09-12T11:30:08;25.70;45.70
30288;DHT22;17103;48.316;11.558;2022-09-12T11:35:30;25.70;44.90
30288;DHT22;17103;48.316;11.558;2022-09-12T11:38:28;25.80;44.40
30288;DHT22;17103;48.316;11.558;2022-09-12T11:41:04;25.80;45.00
30288;DHT22;17103;48.316;11.558;2022-09-12T11:43:41;25.90;44.50
30288;DHT22;17103;48.316;11.558;2022-09-12T11:46:28;26.00;44.80
30288;DHT22;17103;48.316;11.558;2022-09-12T11:49:18;26.00;44.50
30288;DHT22;17103;48.316;11.558;2022-09-12T11:59:59;26.30;44.10
30288;DHT22;17103;48.316;11.558;2022-09-12T12:02:27;26.40;43.90
30288;DHT22;17103;48.316;11.558;2022-09-12T12:05:19;26.50;44.70
30288;DHT22;17103;48.316;11.558;2022-09-12T12:07:57;26.50;44.60
30288;DHT22;17103;48.316;11.558;2022-09-12T12:10:36;26.60;44.50
30288;DHT22;17103;48.316;11.558;2022-09-12T12:13:27;26.70;44.70
30288;DHT22;17103;48.316;11.558;2022-09-12T12:15:56;26.80;44.40
30288;DHT22;17103;48.316;11.558;2022-09-12T12:18:25;26.90;44.00
30288;DHT22;17103;48.316;11.558;2022-09-12T12:20:53;27.00;43.60
30288;DHT22;17103;48.316;11.558;2022-09-12T12:23:26;27.00;43.90
30288;DHT22;17103;48.316;11.558;2022-09-12T12:25:55;27.10;43.00
30288;DHT22;17103;48.316;11.558;2022-09-12T12:28:54;27.20;43.80
30288;DHT22;17103;48.316;11.558;2022-09-12T12:31:21;27.20;43.90
30288;DHT22;17103;48.316;11.558;2022-09-12T12:36:43;27.40;44.60
30288;DHT22;17103;48.316;11.558;2022-09-12T12:42:07;27.60;42.90
30288;DHT22;17103;48.316;11.558;2022-09-12T12:49:40;27.80;43.40
30288;DHT22;17103;48.316;11.558;2022-09-12T12:52:15;27.90;42.90
30288;DHT22;17103;48.316;11.558;2022-09-12T13:02:28;28.20;42.30
30288;DHT22;17103;48.316;11.558;2022-09-12T13:04:57;28.30;41.60
30288;DHT22;17103;48.316;11.558;2022-09-12T13:07:28;28.30;42.00
30288;DHT22;17103;48.316;11.558;2022-09-12T13:09:54;28.40;42.20
30288;DHT22;17103;48.316;11.558;2022-09-12T13:12:28;28.50;41.50
30288;DHT22;17103;48.316;11.558;2022-09-12T13:14:57;28.50;41.60
30288;DHT22;17103;48.316;11.558;2022-09-12T13:17:40;28.50;40.30
30288;DHT22;17103;48.316;11.558;2022-09-12T13:22:47;28.60;41.70
30288;DHT22;17103;48.316;11.558;2022-09-12T13:28:16;28.70;40.50
30288;DHT22;17103;48.316;11.558;2022-09-12T13:30:46;28.70;40.50
30288;DHT22;17103;48.316;11.558;2022-09-12T13:36:08;28.80;41.20
30288;DHT22;17103;48.316;11.558;2022-09-12T13:41:19;28.90;39.60
30288;DHT22;17103;48.316;11.558;2022-09-12T13:43:48;29.00;40.50
30288;DHT22;17103;48.316;11.558;2022-09-12T13:46:20;29.10;39.90
30288;DHT22;17103;48.316;11.558;2022-09-12T13:48:50;29.10;39.30
30288;DHT22;17103;48.316;11.558;2022-09-12T13:51:24;29.20;40.20
30288;DHT22;17103;48.316;11.558;2022-09-12T13:53:53;29.10;39.50
30288;DHT22;17103;48.316;11.558;2022-09-12T13:56:20;29.30;40.00
30288;DHT22;17103;48.316;11.558;2022-09-12T13:58:57;29.30;39.40
30288;DHT22;17103;48.316;11.558;2022-09-12T14:01:37;29.40;39.00
30288;DHT22;17103;48.316;11.558;2022-09-12T14:04:23;29.50;38.50
30288;DHT22;17103;48.316;11.558;2022-09-12T14:07:28;29.50;39.00
30288;DHT22;17103;48.316;11.558;2022-09-12T14:09:57;29.70;38.60
30288;DHT22;17103;48.316;11.558;2022-09-12T14:12:35;29.80;38.90
30288;DHT22;17103;48.316;11.558;2022-09-12T14:15:01;29.90;38.60
30288;DHT22;17103;48.316;11.558;2022-09-12T14:17:35;30.00;38.90
30288;DHT22;17103;48.316;11.558;2022-09-12T14:20:22;30.10;38.10
30288;DHT22;17103;48.316;11.558;2022-09-12T14:22:50;30.30;37.90
30288;DHT22;17103;48.316;11.558;2022-09-12T14:25:21;30.40;38.70
30288;DHT22;17103;48.316;11.558;2022-09-12T14:27:51;30.50;38.20
30288;DHT22;17103;48.316;11.558;2022-09-12T14:30:23;30.60;38.40
30288;DHT22;17103;48.316;11.558;2022-09-12T14:35:38;30.80;36.70
30288;DHT22;17103;48.316;11.558;2022-09-12T14:40:47;31.00;36.30
30288;DHT22;17103;48.316;11.558;2022-09-12T14:43:21;31.10;37.50
30288;DHT22;17103;48.316;11.558;2022-09-12T14:45:55;31.20;36.50
30288;DHT22;17103;48.316;11.558;2022-09-12T14:48:21;31.20;35.60
30288;DHT22;17103;48.316;11.558;2022-09-12T14:50:51;31.30;36.10
30288;DHT22;17103;48.316;11.558;2022-09-12T14:55:51;31.40;36.00
30288;DHT22;17103;48.316;11.558;2022-09-12T15:01:00;31.50;34.90
30288;DHT22;17103;48.316;11.558;2022-09-12T15:03:31;31.60;35.20
30288;DHT22;17103;48.316;11.558;2022-09-12T15:05:58;31.60;34.20
30288;DHT22;17103;48.316;11.558;2022-09-12T15:08:24;31.60;34.80
30288;DHT22;17103;48.316;11.558;2022-09-12T15:10:51;31.60;35.50
30288;DHT22;17103;48.316;11.558;2022-09-12T15:13:19;31.70;35.40
30288;DHT22;17103;48.316;11.558;2022-09-12T15:15:59;31.70;35.30
30288;DHT22;17103;48.316;11.558;2022-09-12T15:18:26;31.70;35.60
30288;DHT22;17103;48.316;11.558;2022-09-12T15:21:01;31.80;35.80
30288;DHT22;17103;48.316;11.558;2022-09-12T15:25:56;31.90;35.20
30288;DHT22;17103;48.316;11.558;2022-09-12T15:28:23;32.10;36.00
30288;DHT22;17103;48.316;11.558;2022-09-12T15:30:50;32.10;36.40
30288;DHT22;17103;48.316;11.558;2022-09-12T15:33:18;32.20;36.40
30288;DHT22;17103;48.316;11.558;2022-09-12T15:35:45;32.40;35.40
30288;DHT22;17103;48.316;11.558;2022-09-12T15:38:11;32.50;35.40
30288;DHT22;17103;48.316;11.558;2022-09-12T15:40:37;32.70;36.10
30288;DHT22;17103;48.316;11.558;2022-09-12T15:43:03;32.80;35.50
30288;DHT22;17103;48.316;11.558;2022-09-12T15:45:31;33.00;35.10
30288;DHT22;17103;48.316;11.558;2022-09-12T15:47:57;33.20;35.50
30288;DHT22;17103;48.316;11.558;2022-09-12T15:50:23;33.40;34.80
30288;DHT22;17103;48.316;11.558;2022-09-12T15:52:49;33.50;34.80
30288;DHT22;17103;48.316;11.558;2022-09-12T15:55:18;33.70;35.10
30288;DHT22;17103;48.316;11.558;2022-09-12T15:57:44;33.90;34.70
30288;DHT22;17103;48.316;11.558;2022-09-12T16:00:11;34.10;34.30
30288;DHT22;17103;48.316;11.558;2022-09-12T16:02:37;34.20;33.70
30288;DHT22;17103;48.316;11.558;2022-09-12T16:05:03;34.40;33.50
30288;DHT22;17103;48.316;11.558;2022-09-12T16:07:29;34.60;33.20
30288;DHT22;17103;48.316;11.558;2022-09-12T16:09:55;34.80;33.30
30288;DHT22;17103;48.316;11.558;2022-09-12T16:12:21;34.90;32.90
30288;DHT22;17103;48.316;11.558;2022-09-12T16:14:46;35.10;32.60
30288;DHT22;17103;48.316;11.558;2022-09-12T16:17:12;35.20;32.20
30288;DHT22;17103;48.316;11.558;2022-09-12T16:19:38;35.30;31.60
30288;DHT22;17103;48.316;11.558;2022-09-12T16:22:03;35.50;31.60
30288;DHT22;17103;48.316;11.558;2022-09-12T16:24:29;35.60;31.50
30288;DHT22;17103;48.316;11.558;2022-09-12T16:26:55;35.80;30.90
30288;DHT22;17103;48.316;11.558;2022-09-12T16:29:21;35.80;30.80
30288;DHT22;17103;48.316;11.558;2022-09-12T16:31:47;36.00;30.50
30288;DHT22;17103;48.316;11.558;2022-09-12T16:34:12;36.10;30.50
30288;DHT22;17103;48.316;11.558;2022-09-12T16:36:38;36.20;30.10
30288;DHT22;17103;48.316;11.558;2022-09-12T16:39:04;36.20;30.10
30288;DHT22;17103;48.316;11.558;2022-09-12T16:41:30;36.30;29.90
30288;DHT22;17103;48.316;11.558;2022-09-12T16:43:56;36.40;29.60
30288;DHT22;17103;48.316;11.558;2022-09-12T16:46:26;36.40;29.70
30288;DHT22;17103;48.316;11.558;2022-09-12T16:48:56;36.40;29.00
30288;DHT22;17103;48.316;11.558;2022-09-12T16:51:24;36.50;28.90
30288;DHT22;17103;48.316;11.558;2022-09-12T16:53:52;36.40;28.70
30288;DHT22;17103;48.316;11.558;2022-09-12T16:56:19;36.40;28.50
30288;DHT22;17103;48.316;11.558;2022-09-12T16:58:44;36.30;28.60
30288;DHT22;17103;48.316;11.558;2022-09-12T17:01:15;36.20;28.60
30288;DHT22;17103;48.316;11.558;2022-09-12T17:03:42;36.10;28.50
30288;DHT22;17103;48.316;11.558;2022-09-12T17:06:13;36.00;28.70
30288;DHT22;17103;48.316;11.558;2022-09-12T17:08:42;35.80;28.10
30288;DHT22;17103;48.316;11.558;2022-09-12T17:11:11;35.70;28.30
30288;DHT22;17103;48.316;11.558;2022-09-12T17:13:37;35.50;28.20
30288;DHT22;17103;48.316;11.558;2022-09-12T17:16:08;35.30;28.30
30288;DHT22;17103;48.316;11.558;2022-09-12T17:18:36;35.00;28.20
30288;DHT22;17103;48.316;11.558;2022-09-12T17:21:02;34.80;28.30
30288;DHT22;17103;48.316;11.558;2022-09-12T17:23:28;34.60;28.40
30288;DHT22;17103;48.316;11.558;2022-09-12T17:25:54;34.30;28.30
30288;DHT22;17103;48.316;11.558;2022-09-12T17:28:20;34.00;28.40
30288;DHT22;17103;48.316;11.558;2022-09-12T17:30:46;33.80;28.50
30288;DHT22;17103;48.316;11.558;2022-09-12T17:33:12;33.50;28.50
30288;DHT22;17103;48.316;11.558;2022-09-12T17:35:39;33.20;28.60
30288;DHT22;17103;48.316;11.558;2022-09-12T17:38:07;32.80;28.70
30288;DHT22;17103;48.316;11.558;2022-09-12T17:40:36;32.60;28.90
30288;DHT22;17103;48.316;11.558;2022-09-12T17:43:02;32.30;29.00
30288;DHT22;17103;48.316;11.558;2022-09-12T17:45:28;32.00;29.10
30288;DHT22;17103;48.316;11.558;2022-09-12T17:47:54;31.80;29.30
30288;DHT22;17103;48.316;11.558;2022-09-12T17:50:20;31.50;29.40
30288;DHT22;17103;48.316;11.558;2022-09-12T17:52:45;31.30;29.60
30288;DHT22;17103;48.316;11.558;2022-09-12T17:55:11;31.00;29.80
30288;DHT22;17103;48.316;11.558;2022-09-12T17:57:38;30.70;29.90
30288;DHT22;17103;48.316;11.558;2022-09-12T18:00:05;30.50;30.00